Terminal Aerodrome Forecast
Issued by NWS Charleston, WV

Current Version | Previous Version | Graphics & Text | Print | Product List | Glossary On
Versions: 1 2 3 4 5 6 7 8 9 10 11 12 13 14 15 16 17 18 19 20 21 22 23 24 25 26 27
000
FTUS41 KRLX 172300 RRA
TAFBKW
TAF
KBKW 172341Z 1800/1824 VRB03KT P6SM BKN040
     FM180500 VRB03KT 5SM BR BKN035
      TEMPO 1808/1809 2SM BR
     FM181300 VRB03KT P6SM BKN025
     FM181600 35004KT P6SM BKN035
     FM182000 36005KT P6SM SCT035=

USA.gov is the U.S. government's official web portal to all federal, state and local government web resources and services.